This is the latest recevied weather packets stored in our database for station/object IR1ZYZ-3. If no packets are shown the sender has not sent any weather packets the latest 10 day(s).
| Time | Temp. | Humidity | Pressure | Rain* | Wind** | Luminosity | Snow |
|---|---|---|---|---|---|---|---|
| 1778255603 | 27.22° C | 42% | 1014.2 hPa | - | - | - | - |
| 1778254998 | 27.22° C | 45% | 1014.1 hPa | - | - | - | - |
| 1778254392 | 25.56° C | 43% | 1014.2 hPa | - | - | - | - |
| 1778253787 | 25° C | 44% | 1014.4 hPa | - | - | - | - |
| 1778253181 | 23.89° C | 49% | 1014.6 hPa | - | - | - | - |
| 1778252576 | 25.56° C | 43% | 1014.3 hPa | - | - | - | - |
| 1778251971 | 27.78° C | 39% | 1014.1 hPa | - | - | - | - |
| 1778251366 | 28.33° C | 41% | 1014.2 hPa | - | - | - | - |
| 1778250759 | 28.89° C | 40% | 1014.2 hPa | - | - | - | - |
| 1778250154 | 28.89° C | 43% | 1014.1 hPa | - | - | - | - |
| 1778249549 | 27.78° C | 43% | 1014.3 hPa | - | - | - | - |
| 1778248943 | 28.33° C | 42% | 1014.2 hPa | - | - | - | - |
| 1778248339 | 28.33° C | 39% | 1014.2 hPa | - | - | - | - |
| 1778247733 | 28.33° C | 42% | 1014.3 hPa | - | - | - | - |
| 1778247733 | 28.33° C | 42% | 1014.3 hPa | - | - | - | - |
| 1778247128 | 29.44° C | 43% | 1014.2 hPa | - | - | - | - |
| 1778246523 | 28.33° C | 47% | 1014.3 hPa | - | - | - | - |
| 1778245917 | 29.44° C | 48% | 1014.3 hPa | - | - | - | - |
| 1778245311 | 28.33° C | 46% | 1014.3 hPa | - | - | - | - |
| 1778244706 | 27.22° C | 43% | 1014.4 hPa | - | - | - | - |
| 1778244099 | 27.78° C | 42% | 1014.3 hPa | - | - | - | - |
| 1778243494 | 28.33° C | 44% | 1014.4 hPa | - | - | - | - |
| 1778242890 | 28.33° C | 48% | 1014.3 hPa | - | - | - | - |
| 1778242285 | 28.33° C | 47% | 1014.4 hPa | - | - | - | - |
| 1778241681 | 28.33° C | 42% | 1014.4 hPa | - | - | - | - |
* Rain since midnight (hover to see other rain measurements)
** Current wind speed in m/s (hover to see current wind gust speed)